createdAt,value
2018-04-08T00:01:38.339Z,25.77
2018-04-08T00:04:06.496Z,23.23
2018-04-08T00:06:35.390Z,16.30
2018-04-08T00:09:04.313Z,23.67
2018-04-08T00:11:32.469Z,20.70
2018-04-08T00:14:00.624Z,18.60
2018-04-08T00:16:29.548Z,17.27
2018-04-08T00:18:57.673Z,18.73
2018-04-08T00:21:25.837Z,19.70
2018-04-08T00:23:53.973Z,21.23
2018-04-08T00:26:22.108Z,19.77
2018-04-08T00:28:51.037Z,25.60
2018-04-08T00:31:19.171Z,24.07
2018-04-08T00:33:48.072Z,17.63
2018-04-08T00:36:16.224Z,20.03
2018-04-08T00:38:45.182Z,16.30
2018-04-08T00:41:13.316Z,20.27
2018-04-08T00:43:41.443Z,18.17
2018-04-08T00:46:09.592Z,16.60
2018-04-08T00:48:37.719Z,21.03
2018-04-08T00:51:06.679Z,20.23
2018-04-08T00:53:34.811Z,19.33
2018-04-08T00:56:02.959Z,18.20
2018-04-08T00:58:31.102Z,17.33
2018-04-08T01:00:59.244Z,17.03
2018-04-08T01:03:27.391Z,21.90
2018-04-08T01:05:55.539Z,15.27
2018-04-08T01:08:24.439Z,25.53
2018-04-08T01:10:52.576Z,17.70
2018-04-08T01:13:20.739Z,17.30
2018-04-08T01:15:48.871Z,19.90
2018-04-08T01:18:17.023Z,17.43
2018-04-08T01:20:45.171Z,22.67
2018-04-08T01:23:13.333Z,20.83
2018-04-08T01:25:41.456Z,19.43
2018-04-08T01:28:09.619Z,17.23
2018-04-08T01:30:38.539Z,22.03
2018-04-08T01:33:06.659Z,16.70
2018-04-08T01:35:35.591Z,18.37
2018-04-08T01:38:03.719Z,17.83
2018-04-08T01:40:32.611Z,17.43
2018-04-08T01:43:01.538Z,35.60
2018-04-08T01:45:29.723Z,27.43
2018-04-08T01:47:57.872Z,17.57
2018-04-08T01:50:26.000Z,17.37
2018-04-08T01:52:54.152Z,15.23
2018-04-08T01:55:22.312Z,21.90
2018-04-08T01:57:50.455Z,15.30
2018-04-08T02:00:18.662Z,16.40
2018-04-08T02:02:46.820Z,18.23
2018-04-08T02:05:14.951Z,14.73
2018-04-08T02:07:43.876Z,16.97
2018-04-08T02:10:12.008Z,14.40
2018-04-08T02:12:40.136Z,18.60
2018-04-08T02:15:08.302Z,15.70
2018-04-08T02:17:36.472Z,18.80
2018-04-08T02:20:04.620Z,19.47
2018-04-08T02:22:33.512Z,20.90
2018-04-08T02:25:01.684Z,16.67
2018-04-08T02:27:29.824Z,15.27
2018-04-08T02:29:57.952Z,21.37
2018-04-08T02:32:26.100Z,18.40
2018-04-08T02:34:54.276Z,18.50
2018-04-08T02:37:22.399Z,16.50
2018-04-08T02:39:50.532Z,18.53
2018-04-08T02:42:18.713Z,15.53
2018-04-08T02:44:46.853Z,16.60
2018-04-08T02:47:15.783Z,17.50
2018-04-08T02:49:43.925Z,19.53
2018-04-08T02:52:12.061Z,17.40
2018-04-08T02:54:40.244Z,19.87
2018-04-08T02:57:08.384Z,20.13
2018-04-08T02:59:36.584Z,18.13
2018-04-08T03:02:04.713Z,17.00
2018-04-08T03:04:32.859Z,17.53
2018-04-08T03:07:01.755Z,16.60
2018-04-08T03:09:29.907Z,18.17
2018-04-08T03:11:58.822Z,16.57
2018-04-08T03:14:26.952Z,22.93
2018-04-08T03:16:55.122Z,18.93
2018-04-08T03:19:23.256Z,22.57
2018-04-08T03:21:51.382Z,17.17
2018-04-08T03:24:20.324Z,18.30
2018-04-08T03:26:48.451Z,21.10
2018-04-08T03:29:17.382Z,18.30
2018-04-08T03:31:45.537Z,18.83
2018-04-08T03:34:13.669Z,19.83
2018-04-08T03:36:41.847Z,20.27
2018-04-08T03:39:09.986Z,20.83
2018-04-08T03:41:38.116Z,17.20
2018-04-08T03:44:06.264Z,18.50
2018-04-08T03:46:34.411Z,18.33
2018-04-08T03:49:02.544Z,19.17
2018-04-08T03:51:30.707Z,19.17
2018-04-08T03:53:58.835Z,18.57
2018-04-08T03:56:27.020Z,20.50
2018-04-08T03:58:55.147Z,24.23
2018-04-08T04:01:23.274Z,25.50
2018-04-08T04:03:52.192Z,17.77
2018-04-08T04:06:20.314Z,17.07
2018-04-08T04:08:48.467Z,21.00
2018-04-08T04:11:17.046Z,21.53
2018-04-08T04:13:45.218Z,22.60
2018-04-08T04:16:13.362Z,25.10
2018-04-08T04:18:59.355Z,24.07
2018-04-08T04:21:45.481Z,21.60
2018-04-08T04:27:23.979Z,24.00
2018-04-08T04:29:52.128Z,22.67
2018-04-08T04:32:21.027Z,22.43
2018-04-08T04:34:49.952Z,20.33
2018-04-08T04:37:18.083Z,22.17
2018-04-08T04:39:47.001Z,25.30
2018-04-08T04:42:15.131Z,21.20
2018-04-08T04:44:44.063Z,26.03
2018-04-08T04:47:12.203Z,34.37
2018-04-08T04:49:40.378Z,19.83
2018-04-08T04:52:09.295Z,26.03
2018-04-08T04:54:37.439Z,22.93
2018-04-08T04:57:06.335Z,22.47
2018-04-08T04:59:35.253Z,19.17
2018-04-08T05:02:03.384Z,19.40
2018-04-08T05:04:32.246Z,17.80
2018-04-08T05:07:00.375Z,18.77
2018-04-08T05:09:28.544Z,21.25
2018-04-08T05:11:57.436Z,17.73
2018-04-08T05:14:25.568Z,17.20
2018-04-08T05:16:53.711Z,16.17
2018-04-08T05:19:21.851Z,21.20
2018-04-08T05:21:50.049Z,23.03
2018-04-08T05:24:18.178Z,21.17
2018-04-08T05:26:46.403Z,18.20
2018-04-08T05:29:14.554Z,21.20
2018-04-08T05:31:42.693Z,16.90
2018-04-08T05:34:10.824Z,19.87
2018-04-08T05:36:38.980Z,21.00
2018-04-08T05:39:07.158Z,17.00
2018-04-08T05:41:35.292Z,20.77
2018-04-08T05:44:04.187Z,23.53
2018-04-08T05:46:33.119Z,21.83
2018-04-08T05:49:01.250Z,17.70
2018-04-08T05:51:30.146Z,18.37
2018-04-08T05:53:58.300Z,19.73
2018-04-08T05:56:27.195Z,21.83
2018-04-08T05:58:56.115Z,19.73
2018-04-08T06:01:24.252Z,19.30
2018-04-08T06:03:53.324Z,27.70
2018-04-08T06:06:22.154Z,23.27
2018-04-08T06:08:50.304Z,19.93
2018-04-08T06:11:18.431Z,21.77
2018-04-08T06:13:46.586Z,20.73
2018-04-08T06:16:14.724Z,20.20
2018-04-08T06:18:43.633Z,23.70
2018-04-08T06:21:11.798Z,19.10
2018-04-08T06:23:40.695Z,21.47
2018-04-08T06:26:08.866Z,18.90
2018-04-08T06:28:36.995Z,20.20
2018-04-08T06:31:05.156Z,18.43
2018-04-08T06:33:33.306Z,18.27
2018-04-08T06:36:01.445Z,18.47
2018-04-08T06:38:30.394Z,24.53
2018-04-08T06:40:58.529Z,20.83
2018-04-08T06:43:26.720Z,19.93
2018-04-08T06:45:54.862Z,19.00
2018-04-08T06:48:23.041Z,24.07
2018-04-08T06:50:51.171Z,22.70
2018-04-08T06:53:19.305Z,20.60
2018-04-08T06:55:47.490Z,19.67
2018-04-08T06:58:15.623Z,17.87
2018-04-08T07:00:44.552Z,23.37
2018-04-08T07:03:12.740Z,17.60
2018-04-08T07:05:40.872Z,20.07
2018-04-08T07:08:09.024Z,19.17
2018-04-08T07:10:37.919Z,18.57
2018-04-08T07:13:06.836Z,16.40
2018-04-08T07:15:34.992Z,18.80
2018-04-08T07:18:03.147Z,17.83
2018-04-08T07:20:32.050Z,20.60
2018-04-08T07:23:00.200Z,21.50
2018-04-08T07:25:28.331Z,17.50
2018-04-08T07:27:56.467Z,17.70
2018-04-08T07:30:24.622Z,17.73
2018-04-08T07:32:53.519Z,19.03
2018-04-08T07:35:22.457Z,23.30
2018-04-08T07:37:50.599Z,20.77
2018-04-08T07:40:18.765Z,24.97
2018-04-08T07:42:46.935Z,19.10
2018-04-08T07:45:15.084Z,23.63
2018-04-08T07:47:43.262Z,20.60
2018-04-08T07:50:12.184Z,20.40
2018-04-08T07:52:40.350Z,18.77
2018-04-08T07:55:08.499Z,21.23
2018-04-08T07:57:37.404Z,17.20
2018-04-08T08:00:06.315Z,19.40
2018-04-08T08:02:34.472Z,19.27
2018-04-08T08:05:02.622Z,17.93
2018-04-08T08:07:31.547Z,19.67
2018-04-08T08:09:59.678Z,16.77
2018-04-08T08:12:27.815Z,20.77
2018-04-08T08:14:55.982Z,20.10
2018-04-08T08:17:24.124Z,23.27
2018-04-08T08:19:52.287Z,19.87
2018-04-08T08:22:21.210Z,19.53
2018-04-08T08:24:49.371Z,18.40
2018-04-08T08:27:17.526Z,21.67
2018-04-08T08:29:46.419Z,21.00
2018-04-08T08:32:14.575Z,17.70
2018-04-08T08:34:43.479Z,19.77
2018-04-08T08:37:12.371Z,21.63
2018-04-08T08:39:41.285Z,16.97
2018-04-08T08:42:09.418Z,18.53
2018-04-08T08:44:38.326Z,17.83
2018-04-08T08:47:06.458Z,20.57
2018-04-08T08:49:34.611Z,18.70
2018-04-08T08:52:02.739Z,17.97
2018-04-08T08:54:31.633Z,30.60
2018-04-08T08:56:59.783Z,18.03
2018-04-08T08:59:28.682Z,17.97
2018-04-08T09:01:56.851Z,16.03
2018-04-08T09:04:25.791Z,18.10
2018-04-08T09:06:53.957Z,23.57
2018-04-08T09:09:22.083Z,18.33
2018-04-08T09:11:50.231Z,16.83
2018-04-08T09:14:18.368Z,16.33
2018-04-08T09:16:46.524Z,17.93
2018-04-08T09:22:33.357Z,16.60
2018-04-08T09:25:01.503Z,17.10
2018-04-08T09:27:30.404Z,19.33
2018-04-08T09:29:59.316Z,18.43
2018-04-08T09:32:27.448Z,17.53
2018-04-08T09:34:55.604Z,17.53
2018-04-08T09:37:23.726Z,15.17
2018-04-08T09:39:51.852Z,17.23
2018-04-08T09:42:19.998Z,20.20
2018-04-08T09:44:48.140Z,17.67
2018-04-08T09:47:16.388Z,16.33
2018-04-08T09:49:44.577Z,16.33
2018-04-08T09:52:13.472Z,16.40
2018-04-08T09:54:42.359Z,19.00
2018-04-08T09:57:11.272Z,18.53
2018-04-08T09:59:39.409Z,15.67
2018-04-08T10:02:13.804Z,21.50
2018-04-08T10:04:41.932Z,16.40
2018-04-08T10:07:10.083Z,14.33
2018-04-08T10:09:38.996Z,17.77
2018-04-08T10:12:07.150Z,16.60
2018-04-08T10:14:35.410Z,15.37
2018-04-08T10:17:04.315Z,15.17
2018-04-08T10:19:32.448Z,17.67
2018-04-08T10:22:00.599Z,15.00
2018-04-08T10:24:28.751Z,15.07
2018-04-08T10:26:56.900Z,15.73
2018-04-08T10:29:25.866Z,21.73
2018-04-08T10:31:55.007Z,15.13
2018-04-08T10:34:23.132Z,14.67
2018-04-08T10:36:51.276Z,15.40
2018-04-08T10:39:19.426Z,13.17
2018-04-08T10:41:47.576Z,12.37
2018-04-08T10:44:16.502Z,12.10
2018-04-08T10:46:44.628Z,13.87
2018-04-08T10:49:13.545Z,15.40
2018-04-08T10:51:41.681Z,14.97
2018-04-08T10:54:10.580Z,11.73
2018-04-08T10:56:39.499Z,13.27
2018-04-08T10:59:07.679Z,15.17
2018-04-08T11:01:35.824Z,13.80
2018-04-08T11:04:04.715Z,12.97
2018-04-08T11:06:33.635Z,16.67
2018-04-08T11:09:01.768Z,15.37
2018-04-08T11:11:30.664Z,16.83
2018-04-08T11:13:59.575Z,14.70
2018-04-08T11:16:27.717Z,14.03
2018-04-08T11:18:56.635Z,14.13
2018-04-08T11:21:24.798Z,26.53
2018-04-08T11:23:52.922Z,17.00
2018-04-08T11:26:21.061Z,13.00
2018-04-08T11:28:49.211Z,20.43
2018-04-08T11:31:18.227Z,15.27
2018-04-08T11:33:46.372Z,13.20
2018-04-08T11:36:15.279Z,14.10
2018-04-08T11:38:43.471Z,12.87
2018-04-08T11:41:11.674Z,14.60
2018-04-08T11:43:39.809Z,12.30
2018-04-08T11:46:07.967Z,13.00
2018-04-08T11:48:36.143Z,13.03
2018-04-08T11:51:04.298Z,14.20
2018-04-08T11:53:33.199Z,12.73
2018-04-08T11:56:01.343Z,12.97
2018-04-08T11:58:30.246Z,17.53
2018-04-08T12:00:59.160Z,38.73
2018-04-08T12:03:27.283Z,14.70
2018-04-08T12:05:55.416Z,12.60
2018-04-08T12:08:23.568Z,13.97
2018-04-08T12:10:51.694Z,12.70
2018-04-08T12:13:19.852Z,16.10
2018-04-08T12:15:47.988Z,12.90
2018-04-08T12:18:16.136Z,22.80
2018-04-08T12:20:45.109Z,12.00
2018-04-08T12:23:13.216Z,11.97
2018-04-08T12:25:41.379Z,14.50
2018-04-08T12:28:10.272Z,14.30
2018-04-08T12:30:38.407Z,13.67
2018-04-08T12:33:06.561Z,12.30
2018-04-08T12:35:34.707Z,13.63
2018-04-08T12:38:02.876Z,14.73
2018-04-08T12:40:31.040Z,20.13
2018-04-08T12:42:59.575Z,14.50
2018-04-08T12:45:28.291Z,19.03
2018-04-08T12:47:57.424Z,13.13
2018-04-08T12:50:25.577Z,10.93
2018-04-08T12:52:53.741Z,16.63
2018-04-08T12:55:22.644Z,16.57
2018-04-08T12:57:50.843Z,12.43
2018-04-08T13:00:19.002Z,14.40
2018-04-08T13:02:47.145Z,14.40
2018-04-08T13:05:16.043Z,20.43
2018-04-08T13:07:44.292Z,16.00
2018-04-08T13:10:12.360Z,17.77
2018-04-08T13:12:40.532Z,13.00
2018-04-08T13:15:08.663Z,19.73
2018-04-08T13:17:36.823Z,11.70
2018-04-08T13:20:05.002Z,12.43
2018-04-08T13:22:33.152Z,15.80
2018-04-08T13:25:01.311Z,15.47
2018-04-08T13:27:30.252Z,20.80
2018-04-08T13:29:58.375Z,15.80
2018-04-08T13:32:27.284Z,16.70
2018-04-08T13:34:56.303Z,17.80
2018-04-08T13:37:24.446Z,25.93
2018-04-08T13:39:52.601Z,18.63
2018-04-08T13:42:21.548Z,11.10
2018-04-08T13:44:49.680Z,20.10
2018-04-08T13:47:17.798Z,12.27
2018-04-08T13:49:45.940Z,14.13
2018-04-08T13:52:14.355Z,13.77
2018-04-08T13:54:42.478Z,30.43
2018-04-08T13:57:10.635Z,11.53
2018-04-08T13:59:38.771Z,14.00
2018-04-08T14:02:06.894Z,11.33
2018-04-08T14:04:35.021Z,11.03
2018-04-08T14:07:03.175Z,13.50
2018-04-08T14:09:31.308Z,12.60
2018-04-08T14:11:59.480Z,11.50
2018-04-08T14:14:27.662Z,11.70
2018-04-08T14:16:56.537Z,16.30
2018-04-08T14:19:25.448Z,19.60
2018-04-08T14:21:53.656Z,14.03
2018-04-08T14:24:21.811Z,26.20
2018-04-08T14:26:49.946Z,17.03
2018-04-08T14:29:18.082Z,19.80
2018-04-08T14:31:46.227Z,15.07
2018-04-08T14:34:14.363Z,22.70
2018-04-08T14:36:42.498Z,20.83
2018-04-08T14:39:10.640Z,20.40
2018-04-08T14:41:38.819Z,14.70
2018-04-08T14:44:06.951Z,18.43
2018-04-08T14:46:35.158Z,27.63
2018-04-08T14:49:03.260Z,18.97
2018-04-08T14:51:31.389Z,20.47
2018-04-08T14:53:59.555Z,17.03
2018-04-08T14:56:27.715Z,19.13
2018-04-08T14:58:56.626Z,18.30
2018-04-08T15:01:24.794Z,16.07
2018-04-08T15:03:52.922Z,19.77
2018-04-08T15:06:21.072Z,15.03
2018-04-08T15:08:49.203Z,14.70
2018-04-08T15:11:17.339Z,15.40
2018-04-08T15:13:45.484Z,17.83
2018-04-08T15:16:13.644Z,18.43
2018-04-08T15:18:41.819Z,14.60
2018-04-08T15:21:09.979Z,19.40
2018-04-08T15:23:38.112Z,15.03
2018-04-08T15:26:07.006Z,14.37
2018-04-08T15:28:35.916Z,16.93
2018-04-08T15:31:04.055Z,20.57
2018-04-08T15:33:32.223Z,18.07
2018-04-08T15:36:00.347Z,15.70
2018-04-08T15:38:28.472Z,16.00
2018-04-08T15:40:56.624Z,19.70
2018-04-08T15:43:24.743Z,17.53
2018-04-08T15:45:52.893Z,13.27
2018-04-08T15:48:21.791Z,22.13
2018-04-08T15:50:50.687Z,18.80
2018-04-08T15:53:19.618Z,23.90
2018-04-08T15:55:48.063Z,16.80
2018-04-08T15:58:16.226Z,16.90
2018-04-08T16:00:45.118Z,21.10
2018-04-08T16:03:14.014Z,18.07
2018-04-08T16:05:42.161Z,21.47
2018-04-08T16:08:10.299Z,19.37
2018-04-08T16:10:38.435Z,17.87
2018-04-08T16:13:06.645Z,16.40
2018-04-08T16:15:34.804Z,21.93
2018-04-08T16:18:02.960Z,21.67
2018-04-08T16:20:31.095Z,19.97
2018-04-08T16:22:59.264Z,18.47
2018-04-08T16:25:28.176Z,23.70
2018-04-08T16:30:36.964Z,21.70
2018-04-08T16:33:05.132Z,20.37
2018-04-08T16:35:33.267Z,19.20
2018-04-08T16:38:01.463Z,17.60
2018-04-08T16:40:29.591Z,22.93
2018-04-08T16:42:57.731Z,23.80
2018-04-08T16:45:25.916Z,19.70
2018-04-08T16:47:54.056Z,20.83
2018-04-08T16:50:22.212Z,25.03
2018-04-08T16:52:50.339Z,26.13
2018-04-08T16:55:18.476Z,25.73
2018-04-08T16:57:46.626Z,24.93
2018-04-08T17:00:14.764Z,26.13
2018-04-08T17:02:42.917Z,24.40
2018-04-08T17:05:11.793Z,28.67
2018-04-08T17:07:39.944Z,27.67
2018-04-08T17:10:08.111Z,27.00
2018-04-08T17:12:36.259Z,25.00
2018-04-08T17:15:05.155Z,27.67
2018-04-08T17:17:34.097Z,35.53
2018-04-08T17:20:02.249Z,25.73
2018-04-08T17:22:31.233Z,33.03
2018-04-08T17:24:59.371Z,38.60
2018-04-08T17:27:27.528Z,142.40
2018-04-08T17:29:56.492Z,75.93
2018-04-08T17:32:24.624Z,42.27
2018-04-08T17:34:52.757Z,26.07
2018-04-08T17:37:20.916Z,35.80
2018-04-08T17:39:49.051Z,29.40
2018-04-08T17:42:17.233Z,26.07
2018-04-08T17:44:45.383Z,29.20
2018-04-08T17:47:13.528Z,36.40
2018-04-08T17:49:41.699Z,31.97
2018-04-08T17:52:09.829Z,27.60
2018-04-08T17:54:37.964Z,25.53
2018-04-08T17:57:06.882Z,26.83
2018-04-08T17:59:35.019Z,27.67
2018-04-08T18:02:03.974Z,36.47
2018-04-08T18:04:32.104Z,26.73
2018-04-08T18:07:00.236Z,31.03
2018-04-08T18:09:28.389Z,28.60
2018-04-08T18:11:56.516Z,31.30
2018-04-08T18:14:24.674Z,28.77
2018-04-08T18:16:53.584Z,25.10
2018-04-08T18:19:21.759Z,29.53
2018-04-08T18:21:49.887Z,36.67
2018-04-08T18:24:18.016Z,30.03
2018-04-08T18:26:46.170Z,36.23
2018-04-08T18:29:14.324Z,35.40
2018-04-08T18:31:43.239Z,36.30
2018-04-08T18:34:11.412Z,34.20
2018-04-08T18:36:39.543Z,30.53
2018-04-08T18:39:07.697Z,28.83
2018-04-08T18:41:35.907Z,29.77
2018-04-08T18:44:04.808Z,31.90
2018-04-08T18:46:33.723Z,26.07
2018-04-08T18:49:01.852Z,26.57
2018-04-08T18:51:29.982Z,28.77
2018-04-08T18:53:58.136Z,31.27
2018-04-08T18:56:26.263Z,28.13
2018-04-08T18:58:54.430Z,29.93
2018-04-08T19:01:22.560Z,31.67
2018-04-08T19:03:50.687Z,26.50
2018-04-08T19:06:19.608Z,33.50
2018-04-08T19:08:47.762Z,34.50
2018-04-08T19:11:16.671Z,34.07
2018-04-08T19:13:44.818Z,32.50
2018-04-08T19:16:13.712Z,34.33
2018-04-08T19:18:42.617Z,32.83
2018-04-08T19:21:10.797Z,35.03
2018-04-08T19:23:38.924Z,41.33
2018-04-08T19:26:07.076Z,29.93
2018-04-08T19:28:35.215Z,33.93
2018-04-08T19:31:03.385Z,36.87
2018-04-08T19:33:31.515Z,29.50
2018-04-08T19:35:59.657Z,28.87
2018-04-08T19:38:27.813Z,36.73
2018-04-08T19:40:55.941Z,31.97
2018-04-08T19:43:24.860Z,32.57
2018-04-08T19:45:53.012Z,52.83
2018-04-08T19:48:21.920Z,87.07
2018-04-08T19:50:50.117Z,41.37
2018-04-08T19:53:18.275Z,47.40
2018-04-08T19:55:46.444Z,39.60
2018-04-08T19:58:14.571Z,37.53
2018-04-08T20:00:42.825Z,36.53
2018-04-08T20:03:10.963Z,39.97
2018-04-08T20:05:39.243Z,32.47
2018-04-08T20:08:07.376Z,51.57
2018-04-08T20:10:36.285Z,34.50
2018-04-08T20:13:04.455Z,43.77
2018-04-08T20:15:33.360Z,44.60
2018-04-08T20:18:01.561Z,40.50
2018-04-08T20:20:29.720Z,39.37
2018-04-08T20:22:57.860Z,34.90
2018-04-08T20:25:26.759Z,47.93
2018-04-08T20:27:54.921Z,42.60
2018-04-08T20:30:23.851Z,41.93
2018-04-08T20:32:52.050Z,43.50
2018-04-08T20:35:20.151Z,41.03
2018-04-08T20:37:49.074Z,44.00
2018-04-08T20:40:17.266Z,41.90
2018-04-08T20:42:45.396Z,48.80
2018-04-08T20:45:14.320Z,54.43
2018-04-08T20:47:42.465Z,54.77
2018-04-08T20:50:11.355Z,51.50
2018-04-08T20:52:39.508Z,56.43
2018-04-08T20:55:08.407Z,58.53
2018-04-08T20:57:37.324Z,47.07
2018-04-08T21:00:05.459Z,57.70
2018-04-08T21:02:34.403Z,51.77
2018-04-08T21:05:02.536Z,53.63
2018-04-08T21:07:31.446Z,50.73
2018-04-08T21:09:59.632Z,49.83
2018-04-08T21:12:27.759Z,56.10
2018-04-08T21:14:56.677Z,61.20
2018-04-08T21:17:24.809Z,56.63
2018-04-08T21:19:52.972Z,54.07
2018-04-08T21:22:21.099Z,57.20
2018-04-08T21:24:49.262Z,49.53
2018-04-08T21:27:17.396Z,55.77
2018-04-08T21:29:45.532Z,53.43
2018-04-08T21:32:13.688Z,51.77
2018-04-08T21:34:42.507Z,51.07
2018-04-08T21:37:10.651Z,57.47
2018-04-08T21:39:38.801Z,55.60
2018-04-08T21:42:07.728Z,54.43
2018-04-08T21:44:35.872Z,53.20
2018-04-08T21:47:04.057Z,65.20
2018-04-08T21:49:32.184Z,59.47
2018-04-08T21:52:00.336Z,46.83
2018-04-08T21:54:28.468Z,51.33
2018-04-08T21:56:56.613Z,42.73
2018-04-08T21:59:25.551Z,50.80
2018-04-08T22:01:53.687Z,48.60
2018-04-08T22:04:22.585Z,53.10
2018-04-08T22:06:50.740Z,44.03
2018-04-08T22:09:19.643Z,48.43
2018-04-08T22:11:47.805Z,43.20
2018-04-08T22:14:16.722Z,48.87
2018-04-08T22:16:44.851Z,44.77
2018-04-08T22:19:13.028Z,52.00
2018-04-08T22:21:41.928Z,42.77
2018-04-08T22:24:10.833Z,47.33
2018-04-08T22:26:38.991Z,43.57
2018-04-08T22:29:07.924Z,52.20
2018-04-08T22:31:36.051Z,55.70
2018-04-08T22:34:04.954Z,54.63
2018-04-08T22:36:33.103Z,47.47
2018-04-08T22:39:01.244Z,55.30
2018-04-08T22:41:29.420Z,56.77
2018-04-08T22:43:57.555Z,46.70
2018-04-08T22:46:25.713Z,42.13
2018-04-08T22:48:54.610Z,45.13
2018-04-08T22:51:22.740Z,46.27
2018-04-08T22:53:50.895Z,53.60
2018-04-08T22:56:19.020Z,50.03
2018-04-08T22:58:47.918Z,47.50
2018-04-08T23:01:16.328Z,48.70
2018-04-08T23:03:44.463Z,52.07
2018-04-08T23:06:12.613Z,49.60
2018-04-08T23:08:40.784Z,54.30
2018-04-08T23:11:08.920Z,43.73
2018-04-08T23:13:37.064Z,42.33
2018-04-08T23:16:05.211Z,46.97
2018-04-08T23:18:34.124Z,46.53
2018-04-08T23:21:02.272Z,45.30
2018-04-08T23:23:30.404Z,45.67
2018-04-08T23:25:58.556Z,46.37
2018-04-08T23:28:26.684Z,51.17
2018-04-08T23:30:55.607Z,49.30
2018-04-08T23:33:23.756Z,46.47
2018-04-08T23:35:52.666Z,53.03
2018-04-08T23:38:20.822Z,52.60
2018-04-08T23:40:49.724Z,53.47
2018-04-08T23:43:17.878Z,54.70
2018-04-08T23:45:46.771Z,40.80
2018-04-08T23:48:15.676Z,50.30
2018-04-08T23:50:43.828Z,41.97
2018-04-08T23:53:12.748Z,46.37
2018-04-08T23:55:40.899Z,48.87
2018-04-08T23:58:09.799Z,44.03
